sensor_id;sensor_type;location;lat;lon;timestamp;P1;durP1;ratioP1;P2;durP2;ratioP2
44197;SDS011;30157;55.512;37.764;2023-07-13T00:02:16;4.53;;;2.72;;
44197;SDS011;30157;55.512;37.764;2023-07-13T00:04:42;3.50;;;2.28;;
44197;SDS011;30157;55.512;37.764;2023-07-13T00:07:08;4.22;;;2.33;;
44197;SDS011;30157;55.512;37.764;2023-07-13T00:09:34;3.17;;;2.28;;
44197;SDS011;30157;55.512;37.764;2023-07-13T00:12:00;3.10;;;2.22;;
44197;SDS011;30157;55.512;37.764;2023-07-13T00:14:27;3.40;;;2.17;;
44197;SDS011;30157;55.512;37.764;2023-07-13T00:16:54;3.47;;;2.25;;
44197;SDS011;30157;55.512;37.764;2023-07-13T00:19:20;3.17;;;2.17;;
44197;SDS011;30157;55.512;37.764;2023-07-13T00:21:46;3.60;;;2.20;;
44197;SDS011;30157;55.512;37.764;2023-07-13T00:24:15;3.88;;;2.50;;
44197;SDS011;30157;55.512;37.764;2023-07-13T00:26:44;2.85;;;2.17;;
44197;SDS011;30157;55.512;37.764;2023-07-13T00:29:11;6.63;;;2.38;;
44197;SDS011;30157;55.512;37.764;2023-07-13T00:31:38;2.63;;;2.00;;
44197;SDS011;30157;55.512;37.764;2023-07-13T00:34:04;5.35;;;2.10;;
44197;SDS011;30157;55.512;37.764;2023-07-13T00:36:30;3.75;;;2.17;;
44197;SDS011;30157;55.512;37.764;2023-07-13T00:38:57;3.47;;;2.35;;
44197;SDS011;30157;55.512;37.764;2023-07-13T00:41:24;2.25;;;1.85;;
44197;SDS011;30157;55.512;37.764;2023-07-13T00:43:50;3.28;;;2.30;;
44197;SDS011;30157;55.512;37.764;2023-07-13T00:46:23;3.22;;;2.13;;
44197;SDS011;30157;55.512;37.764;2023-07-13T00:51:20;2.35;;;1.85;;
44197;SDS011;30157;55.512;37.764;2023-07-13T00:53:51;2.65;;;2.00;;
44197;SDS011;30157;55.512;37.764;2023-07-13T00:56:19;2.70;;;1.85;;
44197;SDS011;30157;55.512;37.764;2023-07-13T00:58:45;2.50;;;1.80;;
44197;SDS011;30157;55.512;37.764;2023-07-13T01:01:11;2.50;;;1.75;;
44197;SDS011;30157;55.512;37.764;2023-07-13T01:03:38;2.50;;;1.83;;
44197;SDS011;30157;55.512;37.764;2023-07-13T01:06:06;2.38;;;1.70;;
44197;SDS011;30157;55.512;37.764;2023-07-13T01:08:32;3.22;;;2.00;;
44197;SDS011;30157;55.512;37.764;2023-07-13T01:11:00;3.17;;;1.90;;
44197;SDS011;30157;55.512;37.764;2023-07-13T01:13:25;4.20;;;2.00;;
44197;SDS011;30157;55.512;37.764;2023-07-13T01:15:52;3.22;;;1.85;;
44197;SDS011;30157;55.512;37.764;2023-07-13T01:18:21;4.55;;;2.10;;
44197;SDS011;30157;55.512;37.764;2023-07-13T01:23:44;3.28;;;2.00;;
44197;SDS011;30157;55.512;37.764;2023-07-13T01:26:10;3.33;;;2.00;;
44197;SDS011;30157;55.512;37.764;2023-07-13T01:28:37;2.65;;;1.98;;
44197;SDS011;30157;55.512;37.764;2023-07-13T01:31:03;2.47;;;1.75;;
44197;SDS011;30157;55.512;37.764;2023-07-13T01:33:29;3.33;;;2.22;;
44197;SDS011;30157;55.512;37.764;2023-07-13T01:35:56;3.95;;;1.95;;
44197;SDS011;30157;55.512;37.764;2023-07-13T01:38:25;3.90;;;1.98;;
44197;SDS011;30157;55.512;37.764;2023-07-13T01:40:52;3.10;;;1.90;;
44197;SDS011;30157;55.512;37.764;2023-07-13T01:43:18;2.25;;;2.05;;
44197;SDS011;30157;55.512;37.764;2023-07-13T01:45:45;3.55;;;2.10;;
44197;SDS011;30157;55.512;37.764;2023-07-13T01:48:11;3.15;;;2.20;;
44197;SDS011;30157;55.512;37.764;2023-07-13T01:50:37;3.55;;;2.30;;
44197;SDS011;30157;55.512;37.764;2023-07-13T01:53:04;3.55;;;2.45;;
44197;SDS011;30157;55.512;37.764;2023-07-13T01:55:30;4.03;;;2.20;;
44197;SDS011;30157;55.512;37.764;2023-07-13T01:57:56;4.80;;;2.58;;
44197;SDS011;30157;55.512;37.764;2023-07-13T02:00:22;3.72;;;2.50;;
44197;SDS011;30157;55.512;37.764;2023-07-13T02:02:48;2.70;;;2.05;;
44197;SDS011;30157;55.512;37.764;2023-07-13T02:05:14;3.88;;;2.20;;
44197;SDS011;30157;55.512;37.764;2023-07-13T02:07:41;3.72;;;2.50;;
44197;SDS011;30157;55.512;37.764;2023-07-13T02:10:08;5.28;;;2.80;;
44197;SDS011;30157;55.512;37.764;2023-07-13T02:12:35;3.88;;;2.40;;
44197;SDS011;30157;55.512;37.764;2023-07-13T02:15:02;5.38;;;2.63;;
44197;SDS011;30157;55.512;37.764;2023-07-13T02:17:33;2.88;;;2.00;;
44197;SDS011;30157;55.512;37.764;2023-07-13T02:19:59;4.45;;;2.42;;
44197;SDS011;30157;55.512;37.764;2023-07-13T02:22:25;2.70;;;2.08;;
44197;SDS011;30157;55.512;37.764;2023-07-13T02:24:51;2.53;;;2.05;;
44197;SDS011;30157;55.512;37.764;2023-07-13T02:27:18;4.72;;;2.70;;
44197;SDS011;30157;55.512;37.764;2023-07-13T02:29:45;4.28;;;2.60;;
44197;SDS011;30157;55.512;37.764;2023-07-13T02:32:11;3.15;;;2.47;;
44197;SDS011;30157;55.512;37.764;2023-07-13T02:34:36;3.13;;;1.98;;
44197;SDS011;30157;55.512;37.764;2023-07-13T02:37:04;5.47;;;2.15;;
44197;SDS011;30157;55.512;37.764;2023-07-13T02:39:29;2.90;;;2.00;;
44197;SDS011;30157;55.512;37.764;2023-07-13T02:41:58;3.00;;;2.30;;
44197;SDS011;30157;55.512;37.764;2023-07-13T02:44:26;2.90;;;2.20;;
44197;SDS011;30157;55.512;37.764;2023-07-13T02:46:52;3.60;;;2.20;;
44197;SDS011;30157;55.512;37.764;2023-07-13T02:49:18;3.35;;;2.22;;
44197;SDS011;30157;55.512;37.764;2023-07-13T02:51:44;4.75;;;2.42;;
44197;SDS011;30157;55.512;37.764;2023-07-13T02:54:10;4.78;;;2.40;;
44197;SDS011;30157;55.512;37.764;2023-07-13T02:56:37;5.05;;;2.55;;
44197;SDS011;30157;55.512;37.764;2023-07-13T02:59:04;3.65;;;2.30;;
44197;SDS011;30157;55.512;37.764;2023-07-13T03:01:30;4.32;;;2.92;;
44197;SDS011;30157;55.512;37.764;2023-07-13T03:04:01;4.53;;;2.63;;
44197;SDS011;30157;55.512;37.764;2023-07-13T03:06:30;4.35;;;2.92;;
44197;SDS011;30157;55.512;37.764;2023-07-13T03:08:56;3.70;;;2.45;;
44197;SDS011;30157;55.512;37.764;2023-07-13T03:11:23;3.67;;;2.20;;
44197;SDS011;30157;55.512;37.764;2023-07-13T03:14:09;4.15;;;2.35;;
44197;SDS011;30157;55.512;37.764;2023-07-13T03:16:37;3.90;;;2.72;;
44197;SDS011;30157;55.512;37.764;2023-07-13T03:19:03;3.40;;;2.40;;
44197;SDS011;30157;55.512;37.764;2023-07-13T03:21:29;4.22;;;2.65;;
44197;SDS011;30157;55.512;37.764;2023-07-13T03:23:55;3.38;;;2.50;;
44197;SDS011;30157;55.512;37.764;2023-07-13T03:26:21;4.10;;;2.30;;
44197;SDS011;30157;55.512;37.764;2023-07-13T03:28:47;4.15;;;2.80;;
44197;SDS011;30157;55.512;37.764;2023-07-13T03:31:29;4.88;;;2.60;;
44197;SDS011;30157;55.512;37.764;2023-07-13T03:33:56;3.40;;;2.50;;
44197;SDS011;30157;55.512;37.764;2023-07-13T03:36:24;3.83;;;2.60;;
44197;SDS011;30157;55.512;37.764;2023-07-13T03:38:56;4.07;;;2.70;;
44197;SDS011;30157;55.512;37.764;2023-07-13T03:41:28;3.72;;;2.53;;
44197;SDS011;30157;55.512;37.764;2023-07-13T03:43:56;4.03;;;2.60;;
44197;SDS011;30157;55.512;37.764;2023-07-13T03:46:24;3.28;;;2.15;;
44197;SDS011;30157;55.512;37.764;2023-07-13T03:48:50;3.25;;;2.47;;
44197;SDS011;30157;55.512;37.764;2023-07-13T03:51:17;5.07;;;2.70;;
44197;SDS011;30157;55.512;37.764;2023-07-13T03:53:44;4.35;;;2.28;;
44197;SDS011;30157;55.512;37.764;2023-07-13T03:56:14;3.67;;;2.25;;
44197;SDS011;30157;55.512;37.764;2023-07-13T03:58:42;6.07;;;2.80;;
44197;SDS011;30157;55.512;37.764;2023-07-13T04:01:21;3.67;;;2.20;;
44197;SDS011;30157;55.512;37.764;2023-07-13T04:03:48;3.97;;;2.30;;
44197;SDS011;30157;55.512;37.764;2023-07-13T04:06:19;3.88;;;2.63;;
44197;SDS011;30157;55.512;37.764;2023-07-13T04:11:17;2.92;;;2.30;;
44197;SDS011;30157;55.512;37.764;2023-07-13T04:13:44;5.45;;;2.95;;
44197;SDS011;30157;55.512;37.764;2023-07-13T04:16:11;3.80;;;2.30;;
44197;SDS011;30157;55.512;37.764;2023-07-13T04:18:38;3.28;;;2.30;;
44197;SDS011;30157;55.512;37.764;2023-07-13T04:21:04;5.60;;;2.72;;
44197;SDS011;30157;55.512;37.764;2023-07-13T04:23:30;3.00;;;2.30;;
44197;SDS011;30157;55.512;37.764;2023-07-13T04:25:56;3.10;;;2.35;;
44197;SDS011;30157;55.512;37.764;2023-07-13T04:28:22;5.90;;;2.80;;
44197;SDS011;30157;55.512;37.764;2023-07-13T04:30:49;2.88;;;2.15;;
44197;SDS011;30157;55.512;37.764;2023-07-13T04:33:16;4.95;;;2.40;;
44197;SDS011;30157;55.512;37.764;2023-07-13T04:35:42;3.15;;;2.03;;
44197;SDS011;30157;55.512;37.764;2023-07-13T04:38:09;3.45;;;2.20;;
44197;SDS011;30157;55.512;37.764;2023-07-13T04:40:36;2.83;;;2.22;;
44197;SDS011;30157;55.512;37.764;2023-07-13T04:43:02;3.22;;;2.30;;
44197;SDS011;30157;55.512;37.764;2023-07-13T04:45:28;2.60;;;2.20;;
44197;SDS011;30157;55.512;37.764;2023-07-13T04:47:56;2.90;;;1.92;;
44197;SDS011;30157;55.512;37.764;2023-07-13T04:50:22;4.18;;;2.40;;
44197;SDS011;30157;55.512;37.764;2023-07-13T04:52:49;5.40;;;2.30;;
44197;SDS011;30157;55.512;37.764;2023-07-13T04:55:16;3.53;;;2.38;;
44197;SDS011;30157;55.512;37.764;2023-07-13T04:57:42;3.35;;;2.30;;
44197;SDS011;30157;55.512;37.764;2023-07-13T05:00:09;5.18;;;3.75;;
44197;SDS011;30157;55.512;37.764;2023-07-13T05:02:37;3.05;;;2.00;;
44197;SDS011;30157;55.512;37.764;2023-07-13T05:05:03;3.75;;;2.28;;
44197;SDS011;30157;55.512;37.764;2023-07-13T05:07:30;3.38;;;2.53;;
44197;SDS011;30157;55.512;37.764;2023-07-13T05:09:58;3.53;;;2.17;;
44197;SDS011;30157;55.512;37.764;2023-07-13T05:12:25;4.05;;;2.50;;
44197;SDS011;30157;55.512;37.764;2023-07-13T05:14:51;3.28;;;2.53;;
44197;SDS011;30157;55.512;37.764;2023-07-13T05:17:17;3.88;;;2.50;;
44197;SDS011;30157;55.512;37.764;2023-07-13T05:19:43;2.75;;;1.95;;
44197;SDS011;30157;55.512;37.764;2023-07-13T05:22:09;4.40;;;2.45;;
44197;SDS011;30157;55.512;37.764;2023-07-13T05:24:34;4.70;;;2.33;;
44197;SDS011;30157;55.512;37.764;2023-07-13T05:27:00;4.20;;;2.42;;
44197;SDS011;30157;55.512;37.764;2023-07-13T05:29:26;7.93;;;2.50;;
44197;SDS011;30157;55.512;37.764;2023-07-13T05:31:51;3.60;;;2.53;;
44197;SDS011;30157;55.512;37.764;2023-07-13T05:34:17;2.92;;;2.10;;
44197;SDS011;30157;55.512;37.764;2023-07-13T05:36:43;3.70;;;2.30;;
44197;SDS011;30157;55.512;37.764;2023-07-13T05:39:09;4.25;;;2.33;;
44197;SDS011;30157;55.512;37.764;2023-07-13T05:41:35;4.63;;;2.58;;
44197;SDS011;30157;55.512;37.764;2023-07-13T05:44:01;4.18;;;2.00;;
44197;SDS011;30157;55.512;37.764;2023-07-13T05:46:26;4.18;;;3.05;;
44197;SDS011;30157;55.512;37.764;2023-07-13T05:48:52;4.55;;;2.30;;
44197;SDS011;30157;55.512;37.764;2023-07-13T05:51:18;4.15;;;2.50;;
44197;SDS011;30157;55.512;37.764;2023-07-13T05:53:44;3.95;;;2.35;;
44197;SDS011;30157;55.512;37.764;2023-07-13T05:56:09;2.90;;;2.33;;
44197;SDS011;30157;55.512;37.764;2023-07-13T05:58:35;4.47;;;2.40;;
44197;SDS011;30157;55.512;37.764;2023-07-13T06:01:05;4.78;;;2.25;;
44197;SDS011;30157;55.512;37.764;2023-07-13T06:03:33;4.70;;;2.20;;
44197;SDS011;30157;55.512;37.764;2023-07-13T06:05:58;4.80;;;2.47;;
44197;SDS011;30157;55.512;37.764;2023-07-13T06:08:28;4.05;;;2.30;;
44197;SDS011;30157;55.512;37.764;2023-07-13T06:10:54;4.10;;;2.38;;
44197;SDS011;30157;55.512;37.764;2023-07-13T06:13:20;3.50;;;2.40;;
44197;SDS011;30157;55.512;37.764;2023-07-13T06:15:49;3.47;;;2.22;;
44197;SDS011;30157;55.512;37.764;2023-07-13T06:18:15;4.22;;;2.50;;
44197;SDS011;30157;55.512;37.764;2023-07-13T06:20:41;4.10;;;2.42;;
44197;SDS011;30157;55.512;37.764;2023-07-13T06:23:07;4.88;;;2.50;;
44197;SDS011;30157;55.512;37.764;2023-07-13T06:25:32;6.07;;;2.78;;
44197;SDS011;30157;55.512;37.764;2023-07-13T06:27:58;6.22;;;2.30;;
44197;SDS011;30157;55.512;37.764;2023-07-13T06:30:24;5.78;;;2.35;;
44197;SDS011;30157;55.512;37.764;2023-07-13T06:32:50;4.53;;;2.42;;
44197;SDS011;30157;55.512;37.764;2023-07-13T06:35:16;8.57;;;2.60;;
44197;SDS011;30157;55.512;37.764;2023-07-13T06:37:41;5.82;;;2.25;;
44197;SDS011;30157;55.512;37.764;2023-07-13T06:40:07;4.50;;;2.40;;
44197;SDS011;30157;55.512;37.764;2023-07-13T06:42:33;9.70;;;2.45;;
44197;SDS011;30157;55.512;37.764;2023-07-13T06:44:59;3.20;;;2.20;;
44197;SDS011;30157;55.512;37.764;2023-07-13T06:47:25;5.10;;;2.38;;
44197;SDS011;30157;55.512;37.764;2023-07-13T06:49:50;5.18;;;2.40;;
44197;SDS011;30157;55.512;37.764;2023-07-13T06:52:16;3.88;;;2.10;;
44197;SDS011;30157;55.512;37.764;2023-07-13T06:54:42;6.72;;;2.42;;
44197;SDS011;30157;55.512;37.764;2023-07-13T06:57:08;4.78;;;2.30;;
44197;SDS011;30157;55.512;37.764;2023-07-13T06:59:33;3.22;;;2.05;;
44197;SDS011;30157;55.512;37.764;2023-07-13T07:01:59;4.05;;;2.05;;
44197;SDS011;30157;55.512;37.764;2023-07-13T07:04:25;5.18;;;2.20;;
44197;SDS011;30157;55.512;37.764;2023-07-13T07:06:51;9.50;;;2.72;;
44197;SDS011;30157;55.512;37.764;2023-07-13T07:09:16;4.05;;;2.28;;
44197;SDS011;30157;55.512;37.764;2023-07-13T07:11:42;7.85;;;2.20;;
44197;SDS011;30157;55.512;37.764;2023-07-13T07:14:08;5.28;;;2.30;;
44197;SDS011;30157;55.512;37.764;2023-07-13T07:16:34;5.80;;;2.50;;
44197;SDS011;30157;55.512;37.764;2023-07-13T07:19:00;7.85;;;2.65;;
44197;SDS011;30157;55.512;37.764;2023-07-13T07:21:25;10.32;;;2.40;;
44197;SDS011;30157;55.512;37.764;2023-07-13T07:23:52;6.82;;;2.50;;
44197;SDS011;30157;55.512;37.764;2023-07-13T07:26:18;17.52;;;3.30;;
44197;SDS011;30157;55.512;37.764;2023-07-13T07:28:44;4.63;;;2.20;;
44197;SDS011;30157;55.512;37.764;2023-07-13T07:31:10;6.72;;;2.40;;
44197;SDS011;30157;55.512;37.764;2023-07-13T07:33:36;7.97;;;2.58;;
44197;SDS011;30157;55.512;37.764;2023-07-13T07:36:04;3.72;;;2.00;;
44197;SDS011;30157;55.512;37.764;2023-07-13T07:38:30;5.10;;;2.25;;
44197;SDS011;30157;55.512;37.764;2023-07-13T07:40:56;2.80;;;2.10;;
44197;SDS011;30157;55.512;37.764;2023-07-13T07:43:22;4.07;;;2.20;;
44197;SDS011;30157;55.512;37.764;2023-07-13T07:45:47;3.17;;;2.05;;
44197;SDS011;30157;55.512;37.764;2023-07-13T07:48:13;13.52;;;2.88;;
44197;SDS011;30157;55.512;37.764;2023-07-13T07:50:39;16.92;;;2.90;;
44197;SDS011;30157;55.512;37.764;2023-07-13T07:53:05;12.43;;;3.30;;
44197;SDS011;30157;55.512;37.764;2023-07-13T07:55:35;7.10;;;2.45;;
44197;SDS011;30157;55.512;37.764;2023-07-13T07:58:01;5.63;;;2.42;;
44197;SDS011;30157;55.512;37.764;2023-07-13T08:00:27;5.88;;;2.35;;
44197;SDS011;30157;55.512;37.764;2023-07-13T08:02:55;23.42;;;3.30;;
44197;SDS011;30157;55.512;37.764;2023-07-13T08:05:21;15.05;;;3.47;;
44197;SDS011;30157;55.512;37.764;2023-07-13T08:07:47;24.63;;;4.40;;
44197;SDS011;30157;55.512;37.764;2023-07-13T08:10:13;23.10;;;3.67;;
44197;SDS011;30157;55.512;37.764;2023-07-13T08:12:38;12.27;;;3.35;;
44197;SDS011;30157;55.512;37.764;2023-07-13T08:15:06;54.80;;;6.35;;
44197;SDS011;30157;55.512;37.764;2023-07-13T08:17:36;31.70;;;4.32;;
44197;SDS011;30157;55.512;37.764;2023-07-13T08:20:01;22.25;;;4.38;;
44197;SDS011;30157;55.512;37.764;2023-07-13T08:22:31;11.88;;;3.33;;
44197;SDS011;30157;55.512;37.764;2023-07-13T08:24:57;19.88;;;3.30;;
44197;SDS011;30157;55.512;37.764;2023-07-13T08:27:23;53.72;;;7.47;;
44197;SDS011;30157;55.512;37.764;2023-07-13T08:29:50;3.35;;;1.95;;
44197;SDS011;30157;55.512;37.764;2023-07-13T08:32:17;4.88;;;2.03;;
44197;SDS011;30157;55.512;37.764;2023-07-13T08:34:44;5.13;;;2.17;;
44197;SDS011;30157;55.512;37.764;2023-07-13T08:37:10;9.13;;;2.20;;
44197;SDS011;30157;55.512;37.764;2023-07-13T08:39:35;5.05;;;2.30;;
44197;SDS011;30157;55.512;37.764;2023-07-13T08:42:04;2.97;;;1.90;;
44197;SDS011;30157;55.512;37.764;2023-07-13T08:47:09;4.03;;;1.98;;
44197;SDS011;30157;55.512;37.764;2023-07-13T08:49:38;4.32;;;2.65;;
44197;SDS011;30157;55.512;37.764;2023-07-13T08:52:06;5.60;;;2.40;;
44197;SDS011;30157;55.512;37.764;2023-07-13T08:54:46;3.15;;;2.20;;
44197;SDS011;30157;55.512;37.764;2023-07-13T08:57:17;5.57;;;2.80;;
44197;SDS011;30157;55.512;37.764;2023-07-13T08:59:45;23.23;;;6.45;;
44197;SDS011;30157;55.512;37.764;2023-07-13T09:02:23;39.38;;;11.13;;
44197;SDS011;30157;55.512;37.764;2023-07-13T09:10:40;13.50;;;3.58;;
44197;SDS011;30157;55.512;37.764;2023-07-13T09:13:22;15.53;;;3.40;;
44197;SDS011;30157;55.512;37.764;2023-07-13T09:15:49;42.10;;;5.32;;
44197;SDS011;30157;55.512;37.764;2023-07-13T09:18:19;19.48;;;3.90;;
44197;SDS011;30157;55.512;37.764;2023-07-13T09:23:20;31.45;;;4.78;;
44197;SDS011;30157;55.512;37.764;2023-07-13T09:25:48;15.20;;;3.92;;
44197;SDS011;30157;55.512;37.764;2023-07-13T09:28:23;9.80;;;4.13;;
44197;SDS011;30157;55.512;37.764;2023-07-13T09:30:56;8.35;;;3.42;;
44197;SDS011;30157;55.512;37.764;2023-07-13T09:33:28;26.52;;;4.18;;
44197;SDS011;30157;55.512;37.764;2023-07-13T09:35:56;13.18;;;2.97;;
44197;SDS011;30157;55.512;37.764;2023-07-13T09:38:24;25.23;;;3.63;;
44197;SDS011;30157;55.512;37.764;2023-07-13T09:43:35;3.50;;;2.22;;
44197;SDS011;30157;55.512;37.764;2023-07-13T09:46:01;4.57;;;2.60;;
44197;SDS011;30157;55.512;37.764;2023-07-13T09:48:34;3.25;;;2.30;;
44197;SDS011;30157;55.512;37.764;2023-07-13T09:51:14;5.38;;;2.45;;
44197;SDS011;30157;55.512;37.764;2023-07-13T09:53:41;3.15;;;2.05;;
44197;SDS011;30157;55.512;37.764;2023-07-13T09:56:21;3.83;;;2.70;;
44197;SDS011;30157;55.512;37.764;2023-07-13T09:58:48;2.83;;;2.20;;
44197;SDS011;30157;55.512;37.764;2023-07-13T10:01:15;3.28;;;2.20;;
44197;SDS011;30157;55.512;37.764;2023-07-13T10:03:51;3.30;;;2.25;;
44197;SDS011;30157;55.512;37.764;2023-07-13T10:06:20;4.88;;;3.00;;
44197;SDS011;30157;55.512;37.764;2023-07-13T10:08:47;4.03;;;2.13;;
44197;SDS011;30157;55.512;37.764;2023-07-13T10:13:56;5.60;;;2.63;;
44197;SDS011;30157;55.512;37.764;2023-07-13T10:16:26;3.95;;;2.53;;
44197;SDS011;30157;55.512;37.764;2023-07-13T10:18:59;4.72;;;2.55;;
44197;SDS011;30157;55.512;37.764;2023-07-13T10:21:50;4.03;;;3.00;;
44197;SDS011;30157;55.512;37.764;2023-07-13T10:24:24;7.10;;;2.78;;
44197;SDS011;30157;55.512;37.764;2023-07-13T10:29:29;5.57;;;3.08;;
44197;SDS011;30157;55.512;37.764;2023-07-13T10:32:02;7.32;;;2.85;;
44197;SDS011;30157;55.512;37.764;2023-07-13T10:34:34;5.00;;;3.47;;
44197;SDS011;30157;55.512;37.764;2023-07-13T10:37:04;4.85;;;2.60;;
44197;SDS011;30157;55.512;37.764;2023-07-13T10:39:34;5.05;;;3.05;;
44197;SDS011;30157;55.512;37.764;2023-07-13T10:42:03;5.35;;;3.47;;
44197;SDS011;30157;55.512;37.764;2023-07-13T10:44:32;6.38;;;3.75;;
44197;SDS011;30157;55.512;37.764;2023-07-13T10:47:00;12.38;;;3.83;;
44197;SDS011;30157;55.512;37.764;2023-07-13T10:49:34;9.07;;;3.40;;
44197;SDS011;30157;55.512;37.764;2023-07-13T10:52:02;5.80;;;2.72;;
44197;SDS011;30157;55.512;37.764;2023-07-13T10:57:18;5.43;;;3.00;;
44197;SDS011;30157;55.512;37.764;2023-07-13T10:59:46;6.32;;;3.22;;
44197;SDS011;30157;55.512;37.764;2023-07-13T11:02:31;6.63;;;4.07;;
44197;SDS011;30157;55.512;37.764;2023-07-13T11:04:57;7.90;;;4.90;;
44197;SDS011;30157;55.512;37.764;2023-07-13T11:07:24;5.90;;;3.90;;
44197;SDS011;30157;55.512;37.764;2023-07-13T11:09:54;5.30;;;3.50;;
44197;SDS011;30157;55.512;37.764;2023-07-13T11:22:43;5.55;;;3.75;;
44197;SDS011;30157;55.512;37.764;2023-07-13T11:25:38;5.50;;;3.70;;
44197;SDS011;30157;55.512;37.764;2023-07-13T11:30:40;5.70;;;3.30;;
44197;SDS011;30157;55.512;37.764;2023-07-13T11:36:00;6.57;;;3.97;;
44197;SDS011;30157;55.512;37.764;2023-07-13T11:38:41;6.18;;;3.65;;
44197;SDS011;30157;55.512;37.764;2023-07-13T11:41:13;5.75;;;3.47;;
44197;SDS011;30157;55.512;37.764;2023-07-13T11:43:43;5.75;;;3.10;;
44197;SDS011;30157;55.512;37.764;2023-07-13T11:46:23;8.00;;;3.42;;
44197;SDS011;30157;55.512;37.764;2023-07-13T11:48:50;4.57;;;2.97;;
44197;SDS011;30157;55.512;37.764;2023-07-13T11:51:19;5.50;;;3.30;;
44197;SDS011;30157;55.512;37.764;2023-07-13T11:53:48;6.32;;;3.15;;
44197;SDS011;30157;55.512;37.764;2023-07-13T11:56:16;7.75;;;3.55;;
44197;SDS011;30157;55.512;37.764;2023-07-13T11:58:42;6.05;;;3.40;;
44197;SDS011;30157;55.512;37.764;2023-07-13T12:01:20;8.38;;;3.72;;
44197;SDS011;30157;55.512;37.764;2023-07-13T12:03:48;6.05;;;3.00;;
44197;SDS011;30157;55.512;37.764;2023-07-13T12:06:25;5.10;;;3.20;;
44197;SDS011;30157;55.512;37.764;2023-07-13T12:08:59;7.10;;;3.10;;
44197;SDS011;30157;55.512;37.764;2023-07-13T12:11:26;4.97;;;2.80;;
44197;SDS011;30157;55.512;37.764;2023-07-13T12:13:52;5.95;;;3.10;;
44197;SDS011;30157;55.512;37.764;2023-07-13T12:19:01;7.22;;;3.13;;
44197;SDS011;30157;55.512;37.764;2023-07-13T12:21:33;7.20;;;3.00;;
44197;SDS011;30157;55.512;37.764;2023-07-13T12:24:03;4.50;;;2.70;;
44197;SDS011;30157;55.512;37.764;2023-07-13T12:26:30;5.15;;;2.65;;
44197;SDS011;30157;55.512;37.764;2023-07-13T12:28:58;5.95;;;3.10;;
44197;SDS011;30157;55.512;37.764;2023-07-13T12:31:31;5.07;;;2.50;;
44197;SDS011;30157;55.512;37.764;2023-07-13T12:33:58;5.82;;;3.00;;
44197;SDS011;30157;55.512;37.764;2023-07-13T12:36:29;4.28;;;2.40;;
44197;SDS011;30157;55.512;37.764;2023-07-13T12:38:58;3.83;;;2.50;;
44197;SDS011;30157;55.512;37.764;2023-07-13T12:41:36;5.35;;;2.63;;
44197;SDS011;30157;55.512;37.764;2023-07-13T12:44:02;3.85;;;2.28;;
44197;SDS011;30157;55.512;37.764;2023-07-13T12:46:28;3.85;;;2.30;;
44197;SDS011;30157;55.512;37.764;2023-07-13T12:48:54;3.95;;;2.70;;
44197;SDS011;30157;55.512;37.764;2023-07-13T12:51:24;4.63;;;2.30;;
44197;SDS011;30157;55.512;37.764;2023-07-13T12:54:05;4.55;;;2.72;;
44197;SDS011;30157;55.512;37.764;2023-07-13T12:56:38;4.28;;;2.75;;
44197;SDS011;30157;55.512;37.764;2023-07-13T12:59:04;5.70;;;2.70;;
44197;SDS011;30157;55.512;37.764;2023-07-13T13:01:34;5.03;;;2.92;;
44197;SDS011;30157;55.512;37.764;2023-07-13T13:04:02;4.65;;;2.97;;
44197;SDS011;30157;55.512;37.764;2023-07-13T13:06:36;6.38;;;3.15;;
44197;SDS011;30157;55.512;37.764;2023-07-13T13:09:03;6.07;;;3.40;;
44197;SDS011;30157;55.512;37.764;2023-07-13T13:11:30;5.90;;;2.85;;
44197;SDS011;30157;55.512;37.764;2023-07-13T13:13:57;5.72;;;2.63;;
44197;SDS011;30157;55.512;37.764;2023-07-13T13:18:52;3.45;;;2.70;;
44197;SDS011;30157;55.512;37.764;2023-07-13T13:21:20;5.97;;;3.90;;
44197;SDS011;30157;55.512;37.764;2023-07-13T13:23:45;8.23;;;4.32;;
44197;SDS011;30157;55.512;37.764;2023-07-13T13:26:13;8.63;;;5.20;;
44197;SDS011;30157;55.512;37.764;2023-07-13T13:28:41;7.60;;;4.70;;
44197;SDS011;30157;55.512;37.764;2023-07-13T13:31:09;6.15;;;3.38;;
44197;SDS011;30157;55.512;37.764;2023-07-13T13:33:38;5.70;;;2.85;;
44197;SDS011;30157;55.512;37.764;2023-07-13T13:36:13;5.00;;;2.90;;
44197;SDS011;30157;55.512;37.764;2023-07-13T13:38:49;5.43;;;2.80;;
44197;SDS011;30157;55.512;37.764;2023-07-13T13:41:16;6.03;;;2.90;;
44197;SDS011;30157;55.512;37.764;2023-07-13T13:43:42;6.25;;;3.40;;
44197;SDS011;30157;55.512;37.764;2023-07-13T13:46:13;5.63;;;3.25;;
44197;SDS011;30157;55.512;37.764;2023-07-13T13:48:40;6.13;;;3.15;;
44197;SDS011;30157;55.512;37.764;2023-07-13T13:51:12;8.48;;;4.03;;
44197;SDS011;30157;55.512;37.764;2023-07-13T13:53:45;8.50;;;4.05;;
44197;SDS011;30157;55.512;37.764;2023-07-13T13:56:12;10.52;;;5.35;;
44197;SDS011;30157;55.512;37.764;2023-07-13T13:58:43;11.27;;;5.25;;
44197;SDS011;30157;55.512;37.764;2023-07-13T14:01:12;8.85;;;5.93;;
44197;SDS011;30157;55.512;37.764;2023-07-13T14:03:42;11.55;;;7.15;;
44197;SDS011;30157;55.512;37.764;2023-07-13T14:06:12;12.32;;;6.78;;
44197;SDS011;30157;55.512;37.764;2023-07-13T14:08:39;10.13;;;6.05;;
44197;SDS011;30157;55.512;37.764;2023-07-13T14:11:05;9.30;;;5.80;;
44197;SDS011;30157;55.512;37.764;2023-07-13T14:13:38;10.68;;;5.00;;
44197;SDS011;30157;55.512;37.764;2023-07-13T14:16:11;8.65;;;4.90;;
44197;SDS011;30157;55.512;37.764;2023-07-13T14:18:38;9.93;;;5.38;;
44197;SDS011;30157;55.512;37.764;2023-07-13T14:21:22;6.57;;;4.68;;
44197;SDS011;30157;55.512;37.764;2023-07-13T14:23:48;7.72;;;4.95;;
44197;SDS011;30157;55.512;37.764;2023-07-13T14:28:42;8.60;;;5.30;;
44197;SDS011;30157;55.512;37.764;2023-07-13T14:31:10;7.63;;;4.43;;
44197;SDS011;30157;55.512;37.764;2023-07-13T14:33:37;8.23;;;4.85;;
44197;SDS011;30157;55.512;37.764;2023-07-13T14:36:03;8.80;;;4.65;;
44197;SDS011;30157;55.512;37.764;2023-07-13T14:38:50;7.28;;;4.30;;
44197;SDS011;30157;55.512;37.764;2023-07-13T14:41:16;9.55;;;4.90;;
44197;SDS011;30157;55.512;37.764;2023-07-13T14:43:42;12.43;;;5.65;;
44197;SDS011;30157;55.512;37.764;2023-07-13T14:46:11;7.20;;;4.55;;
44197;SDS011;30157;55.512;37.764;2023-07-13T14:48:49;10.20;;;5.05;;
44197;SDS011;30157;55.512;37.764;2023-07-13T14:51:15;8.75;;;5.07;;
44197;SDS011;30157;55.512;37.764;2023-07-13T14:53:41;7.97;;;4.00;;
44197;SDS011;30157;55.512;37.764;2023-07-13T14:56:10;9.68;;;4.60;;
44197;SDS011;30157;55.512;37.764;2023-07-13T14:58:37;7.32;;;4.93;;
44197;SDS011;30157;55.512;37.764;2023-07-13T15:01:09;9.70;;;5.03;;
44197;SDS011;30157;55.512;37.764;2023-07-13T15:03:46;8.20;;;4.40;;
44197;SDS011;30157;55.512;37.764;2023-07-13T15:06:14;14.90;;;6.22;;
44197;SDS011;30157;55.512;37.764;2023-07-13T15:08:40;12.63;;;6.93;;
44197;SDS011;30157;55.512;37.764;2023-07-13T15:11:09;17.05;;;7.72;;
44197;SDS011;30157;55.512;37.764;2023-07-13T15:13:39;20.90;;;11.15;;
44197;SDS011;30157;55.512;37.764;2023-07-13T15:18:44;19.77;;;11.15;;
44197;SDS011;30157;55.512;37.764;2023-07-13T15:21:11;19.98;;;11.38;;
44197;SDS011;30157;55.512;37.764;2023-07-13T15:23:42;15.02;;;8.40;;
44197;SDS011;30157;55.512;37.764;2023-07-13T15:26:11;13.27;;;7.65;;
44197;SDS011;30157;55.512;37.764;2023-07-13T15:28:40;11.70;;;6.93;;
44197;SDS011;30157;55.512;37.764;2023-07-13T15:31:23;11.00;;;5.97;;
44197;SDS011;30157;55.512;37.764;2023-07-13T15:33:52;8.80;;;5.40;;
44197;SDS011;30157;55.512;37.764;2023-07-13T15:36:20;8.77;;;4.60;;